createdAt,value
2019-06-27T00:01:18.537Z,15.80
2019-06-27T00:03:46.762Z,14.87
2019-06-27T00:06:14.705Z,15.47
2019-06-27T00:08:43.685Z,14.83
2019-06-27T00:11:11.703Z,15.60
2019-06-27T00:13:39.878Z,16.00
2019-06-27T00:16:08.038Z,16.33
2019-06-27T00:18:36.122Z,15.40
2019-06-27T00:21:04.166Z,15.07
2019-06-27T00:23:31.941Z,15.57
2019-06-27T00:25:59.899Z,15.07
2019-06-27T00:28:27.986Z,16.47
2019-06-27T00:30:56.077Z,15.77
2019-06-27T00:33:23.660Z,15.93
2019-06-27T00:35:51.210Z,15.57
2019-06-27T00:38:18.843Z,16.00
2019-06-27T00:40:46.471Z,16.60
2019-06-27T00:43:14.004Z,15.60
2019-06-27T00:45:41.642Z,17.10
2019-06-27T00:48:09.179Z,16.20
2019-06-27T00:50:36.773Z,16.40
2019-06-27T00:53:04.401Z,16.50
2019-06-27T00:55:32.058Z,16.33
2019-06-27T00:58:00.251Z,16.77
2019-06-27T01:00:28.204Z,17.83
2019-06-27T01:02:56.564Z,16.60
2019-06-27T01:05:24.477Z,16.10
2019-06-27T01:07:52.474Z,15.73
2019-06-27T01:10:20.656Z,17.47
2019-06-27T01:12:48.590Z,17.63
2019-06-27T01:15:18.629Z,17.83
2019-06-27T01:17:46.767Z,17.93
2019-06-27T01:20:14.911Z,16.47
2019-06-27T01:22:42.798Z,16.97
2019-06-27T01:25:10.806Z,17.53
2019-06-27T01:27:38.685Z,17.43
2019-06-27T01:30:07.236Z,17.93
2019-06-27T01:32:35.176Z,18.13
2019-06-27T01:35:04.290Z,18.20
2019-06-27T01:37:32.546Z,17.93
2019-06-27T01:40:00.722Z,18.10
2019-06-27T01:42:28.763Z,17.13
2019-06-27T01:45:04.832Z,18.70
2019-06-27T01:47:32.829Z,18.40
2019-06-27T01:50:00.999Z,18.80
2019-06-27T01:52:28.999Z,18.20
2019-06-27T01:54:57.237Z,17.37
2019-06-27T01:57:25.443Z,18.23
2019-06-27T01:59:53.528Z,18.10
2019-06-27T02:02:21.611Z,17.93
2019-06-27T02:04:49.508Z,18.93
2019-06-27T02:07:17.648Z,18.87
2019-06-27T02:09:45.720Z,18.40
2019-06-27T02:12:13.774Z,20.10
2019-06-27T02:14:42.002Z,19.83
2019-06-27T02:17:09.807Z,18.37
2019-06-27T02:19:37.735Z,19.63
2019-06-27T02:22:06.087Z,18.97
2019-06-27T02:24:35.172Z,18.50
2019-06-27T02:27:04.655Z,18.90
2019-06-27T02:29:32.681Z,19.30
2019-06-27T02:32:01.101Z,19.40
2019-06-27T02:34:29.461Z,19.37
2019-06-27T02:36:57.556Z,19.17
2019-06-27T02:39:25.522Z,19.63
2019-06-27T02:41:53.399Z,20.00
2019-06-27T02:44:21.359Z,19.87
2019-06-27T02:46:49.429Z,20.07
2019-06-27T02:49:17.289Z,20.33
2019-06-27T02:51:46.494Z,19.73
2019-06-27T02:54:14.001Z,19.83
2019-06-27T02:56:41.613Z,19.83
2019-06-27T02:59:09.641Z,19.70
2019-06-27T03:01:37.663Z,19.93
2019-06-27T03:04:05.496Z,19.57
2019-06-27T03:06:33.595Z,20.83
2019-06-27T03:09:01.565Z,20.50
2019-06-27T03:11:31.277Z,19.77
2019-06-27T03:13:59.582Z,20.23
2019-06-27T03:16:27.696Z,20.83
2019-06-27T03:18:55.697Z,19.83
2019-06-27T03:21:23.577Z,20.83
2019-06-27T03:23:51.663Z,20.80
2019-06-27T03:26:19.617Z,20.27
2019-06-27T03:28:52.669Z,19.97
2019-06-27T03:31:17.730Z,20.27
2019-06-27T03:33:45.336Z,20.47
2019-06-27T03:36:14.100Z,20.93
2019-06-27T03:38:41.834Z,20.77
2019-06-27T03:41:09.734Z,19.90
2019-06-27T03:43:37.880Z,20.50
2019-06-27T03:46:06.294Z,19.43
2019-06-27T03:48:34.466Z,19.70
2019-06-27T03:51:02.476Z,19.80
2019-06-27T03:53:30.820Z,21.07
2019-06-27T03:55:58.416Z,20.87
2019-06-27T03:58:26.020Z,20.17
2019-06-27T04:00:53.954Z,20.63
2019-06-27T04:03:21.837Z,20.23
2019-06-27T04:05:49.808Z,20.30
2019-06-27T04:08:17.853Z,20.17
2019-06-27T04:10:45.852Z,20.30
2019-06-27T04:13:15.115Z,18.53
2019-06-27T04:15:43.034Z,19.73
2019-06-27T04:18:11.017Z,18.67
2019-06-27T04:20:39.348Z,20.47
2019-06-27T04:23:06.877Z,19.57
2019-06-27T04:25:34.513Z,20.33
2019-06-27T04:28:02.865Z,22.07
2019-06-27T04:30:30.946Z,22.90
2019-06-27T04:32:58.884Z,23.67
2019-06-27T04:35:26.421Z,22.17
2019-06-27T04:37:54.048Z,24.30
2019-06-27T04:40:22.027Z,23.63
2019-06-27T04:42:49.594Z,23.43
2019-06-27T04:45:18.129Z,22.50
2019-06-27T04:47:45.830Z,23.20
2019-06-27T04:50:13.476Z,23.37
2019-06-27T04:52:41.207Z,22.17
2019-06-27T04:55:08.975Z,21.77
2019-06-27T04:57:36.554Z,21.53
2019-06-27T05:00:04.673Z,21.93
2019-06-27T05:02:32.168Z,22.27
2019-06-27T05:04:59.748Z,22.83
2019-06-27T05:07:27.306Z,20.87
2019-06-27T05:09:55.040Z,22.00
2019-06-27T05:12:22.741Z,21.23
2019-06-27T05:14:50.497Z,21.00
2019-06-27T05:17:18.137Z,22.87
2019-06-27T05:19:45.686Z,21.27
2019-06-27T05:22:13.296Z,22.13
2019-06-27T05:24:40.963Z,20.40
2019-06-27T05:27:08.701Z,21.43
2019-06-27T05:29:36.258Z,21.90
2019-06-27T05:32:03.956Z,22.10
2019-06-27T05:34:31.535Z,20.37
2019-06-27T05:36:59.196Z,21.17
2019-06-27T05:39:26.780Z,21.37
2019-06-27T05:41:54.382Z,20.40
2019-06-27T05:44:21.952Z,20.60
2019-06-27T05:46:49.630Z,20.33
2019-06-27T05:49:18.253Z,20.53
2019-06-27T05:51:45.804Z,20.40
2019-06-27T05:54:13.362Z,18.30
2019-06-27T05:56:40.903Z,19.00
2019-06-27T05:59:08.485Z,19.43
2019-06-27T06:01:36.161Z,19.23
2019-06-27T06:04:03.747Z,18.53
2019-06-27T06:06:31.293Z,18.27
2019-06-27T06:08:58.907Z,18.23
2019-06-27T06:11:26.558Z,18.93
2019-06-27T06:13:54.114Z,18.97
2019-06-27T06:16:21.754Z,18.43
2019-06-27T06:18:49.322Z,18.43
2019-06-27T06:21:16.941Z,19.00
2019-06-27T06:23:44.508Z,18.70
2019-06-27T06:26:12.129Z,18.60
2019-06-27T06:28:41.888Z,17.47
2019-06-27T06:31:09.434Z,17.57
2019-06-27T06:33:37.088Z,18.47
2019-06-27T06:36:06.307Z,16.77
2019-06-27T06:38:33.976Z,16.70
2019-06-27T06:41:01.596Z,16.33
2019-06-27T06:43:29.150Z,16.10
2019-06-27T06:45:57.361Z,15.57
2019-06-27T06:48:24.962Z,15.17
2019-06-27T06:50:52.524Z,16.23
2019-06-27T06:53:20.081Z,16.23
2019-06-27T06:55:47.627Z,16.07
2019-06-27T06:58:15.210Z,15.80
2019-06-27T07:00:42.782Z,16.23
2019-06-27T07:03:10.490Z,16.73
2019-06-27T07:05:38.131Z,16.55
2019-06-27T07:08:05.828Z,14.53
2019-06-27T07:10:33.447Z,14.95
2019-06-27T07:13:00.974Z,14.60
2019-06-27T07:15:28.513Z,16.15
2019-06-27T07:17:56.144Z,15.65
2019-06-27T07:20:23.637Z,15.00
2019-06-27T07:22:51.248Z,15.32
2019-06-27T07:25:18.833Z,14.38
2019-06-27T07:27:46.430Z,14.50
2019-06-27T07:30:15.074Z,15.10
2019-06-27T07:32:42.727Z,15.63
2019-06-27T07:35:10.615Z,14.93
2019-06-27T07:37:38.220Z,15.30
2019-06-27T07:40:07.322Z,14.93
2019-06-27T07:42:35.268Z,16.20
2019-06-27T07:45:02.952Z,14.78
2019-06-27T07:47:30.673Z,13.88
2019-06-27T07:49:58.295Z,14.10
2019-06-27T07:52:25.804Z,14.58
2019-06-27T07:54:53.521Z,14.40
2019-06-27T07:57:21.117Z,13.90
2019-06-27T07:59:48.747Z,14.55
2019-06-27T08:02:16.536Z,14.10
2019-06-27T08:04:44.474Z,14.47
2019-06-27T08:07:13.090Z,13.53
2019-06-27T08:09:40.712Z,13.13
2019-06-27T08:12:08.240Z,13.05
2019-06-27T08:14:35.786Z,13.83
2019-06-27T08:17:03.360Z,12.75
2019-06-27T08:19:30.916Z,13.95
2019-06-27T08:21:58.430Z,12.20
2019-06-27T08:24:26.074Z,13.13
2019-06-27T08:26:53.665Z,13.30
2019-06-27T08:29:21.436Z,13.15
2019-06-27T08:31:51.878Z,13.38
2019-06-27T08:34:18.795Z,13.95
2019-06-27T08:36:46.454Z,12.85
2019-06-27T08:39:14.190Z,13.43
2019-06-27T08:41:42.010Z,13.08
2019-06-27T08:44:09.758Z,13.93
2019-06-27T08:46:37.381Z,14.40
2019-06-27T08:49:04.973Z,13.83
2019-06-27T08:51:32.651Z,13.35
2019-06-27T08:54:00.236Z,13.90
2019-06-27T08:56:27.967Z,13.20
2019-06-27T08:58:55.491Z,13.55
2019-06-27T09:01:23.076Z,13.38
2019-06-27T09:03:50.663Z,12.30
2019-06-27T09:06:21.002Z,13.30
2019-06-27T09:08:47.803Z,12.68
2019-06-27T09:11:15.365Z,11.53
2019-06-27T09:13:42.921Z,12.28
2019-06-27T09:16:10.505Z,11.68
2019-06-27T09:18:38.073Z,12.35
2019-06-27T09:21:05.673Z,12.33
2019-06-27T09:23:33.358Z,12.15
2019-06-27T09:26:00.975Z,12.60
2019-06-27T09:28:28.662Z,12.23
2019-06-27T09:30:56.219Z,11.75
2019-06-27T09:33:23.860Z,11.48
2019-06-27T09:35:51.401Z,12.70
2019-06-27T09:38:19.035Z,12.75
2019-06-27T09:40:46.684Z,12.00
2019-06-27T09:43:14.291Z,11.48
2019-06-27T09:45:41.850Z,11.35
2019-06-27T09:48:09.452Z,11.28
2019-06-27T09:50:37.005Z,12.07
2019-06-27T09:53:04.580Z,10.93
2019-06-27T09:55:32.163Z,12.03
2019-06-27T09:58:00.079Z,11.60
2019-06-27T10:00:28.058Z,11.25
2019-06-27T10:02:55.659Z,11.35
2019-06-27T10:05:23.427Z,11.50
2019-06-27T10:07:51.008Z,10.85
2019-06-27T10:10:18.657Z,11.70
2019-06-27T10:12:47.250Z,11.40
2019-06-27T10:15:15.114Z,11.30
2019-06-27T10:17:42.681Z,11.70
2019-06-27T10:20:10.417Z,10.90
2019-06-27T10:22:38.034Z,11.05
2019-06-27T10:25:05.881Z,10.85
2019-06-27T10:27:33.540Z,10.75
2019-06-27T10:30:01.142Z,10.48
2019-06-27T10:32:28.729Z,10.68
2019-06-27T10:34:56.320Z,10.88
2019-06-27T10:37:23.937Z,9.70
2019-06-27T10:39:51.514Z,10.48
2019-06-27T10:42:19.045Z,10.70
2019-06-27T10:44:46.681Z,10.13
2019-06-27T10:47:14.198Z,10.25
2019-06-27T10:49:41.835Z,9.08
2019-06-27T10:52:09.386Z,10.03
2019-06-27T10:54:36.962Z,9.45
2019-06-27T10:57:04.548Z,9.58
2019-06-27T10:59:32.210Z,9.73
2019-06-27T11:01:59.745Z,9.60
2019-06-27T11:04:28.434Z,9.98
2019-06-27T11:06:55.965Z,9.48
2019-06-27T11:09:23.601Z,8.68
2019-06-27T11:11:51.132Z,9.35
2019-06-27T11:14:19.334Z,8.88
2019-06-27T11:16:47.070Z,9.23
2019-06-27T11:19:14.700Z,10.03
2019-06-27T11:21:42.283Z,10.43
2019-06-27T11:24:10.059Z,9.13
2019-06-27T11:26:37.683Z,9.25
2019-06-27T11:29:05.365Z,9.33
2019-06-27T11:31:32.971Z,9.05
2019-06-27T11:34:00.590Z,9.15
2019-06-27T11:36:28.250Z,9.68
2019-06-27T11:38:57.232Z,8.40
2019-06-27T11:41:24.765Z,9.28
2019-06-27T11:43:52.377Z,9.45
2019-06-27T11:46:19.966Z,9.35
2019-06-27T11:48:48.670Z,9.20
2019-06-27T11:51:16.197Z,9.10
2019-06-27T11:53:43.933Z,9.00
2019-06-27T11:56:11.444Z,9.68
2019-06-27T11:58:39.083Z,10.03
2019-06-27T12:01:07.563Z,9.23
2019-06-27T12:03:48.412Z,8.88
2019-06-27T12:06:04.786Z,9.48
2019-06-27T12:08:32.489Z,9.33
2019-06-27T12:11:00.125Z,9.48
2019-06-27T12:13:27.739Z,8.88
2019-06-27T12:15:55.362Z,9.80
2019-06-27T12:18:22.953Z,8.98
2019-06-27T12:20:50.699Z,10.03
2019-06-27T12:23:18.244Z,9.13
2019-06-27T12:25:45.828Z,9.10
2019-06-27T12:28:13.522Z,8.75
2019-06-27T12:30:41.187Z,9.18
2019-06-27T12:33:08.723Z,8.78
2019-06-27T12:35:36.263Z,9.10
2019-06-27T12:38:03.843Z,8.90
2019-06-27T12:40:31.483Z,9.08
2019-06-27T12:42:59.099Z,9.18
2019-06-27T12:45:26.616Z,8.93
2019-06-27T12:47:54.215Z,8.70
2019-06-27T12:50:21.920Z,8.53
2019-06-27T12:52:49.485Z,9.30
2019-06-27T12:55:17.143Z,9.00
2019-06-27T12:57:44.712Z,8.48
2019-06-27T13:00:12.662Z,9.40
2019-06-27T13:02:40.232Z,8.33
2019-06-27T13:05:08.411Z,8.65
2019-06-27T13:07:35.940Z,8.93
2019-06-27T13:10:03.772Z,9.10
2019-06-27T13:12:31.294Z,7.92
2019-06-27T13:14:58.949Z,8.08
2019-06-27T13:17:26.967Z,8.98
2019-06-27T13:19:54.616Z,8.58
2019-06-27T13:22:22.138Z,7.72
2019-06-27T13:24:49.759Z,7.97
2019-06-27T13:27:17.309Z,7.33
2019-06-27T13:29:45.111Z,7.45
2019-06-27T13:32:13.237Z,7.95
2019-06-27T13:34:41.360Z,9.53
2019-06-27T13:37:09.066Z,9.13
2019-06-27T13:39:36.782Z,8.75
2019-06-27T13:42:04.405Z,8.63
2019-06-27T13:44:31.934Z,8.45
2019-06-27T13:46:59.509Z,7.83
2019-06-27T13:49:27.030Z,8.45
2019-06-27T13:51:54.772Z,9.50
2019-06-27T13:54:22.358Z,9.03
2019-06-27T13:56:49.984Z,8.55
2019-06-27T13:59:17.645Z,8.73
2019-06-27T14:01:45.234Z,8.65
2019-06-27T14:04:12.832Z,8.48
2019-06-27T14:06:41.468Z,9.30
2019-06-27T14:09:21.949Z,8.40
2019-06-27T14:11:39.026Z,10.58
2019-06-27T14:14:06.735Z,11.65
2019-06-27T14:16:34.425Z,11.38
2019-06-27T14:19:02.149Z,10.55
2019-06-27T14:21:29.704Z,12.00
2019-06-27T14:23:57.440Z,11.00
2019-06-27T14:26:25.384Z,10.82
2019-06-27T14:28:53.113Z,12.03
2019-06-27T14:31:20.676Z,12.03
2019-06-27T14:33:48.347Z,11.90
2019-06-27T14:36:15.990Z,12.07
2019-06-27T14:38:43.641Z,11.10
2019-06-27T14:41:11.209Z,10.95
2019-06-27T14:43:38.937Z,10.70
2019-06-27T14:46:06.552Z,11.00
2019-06-27T14:48:34.472Z,11.05
2019-06-27T14:51:02.122Z,11.55
2019-06-27T14:53:29.794Z,10.82
2019-06-27T14:55:57.489Z,10.40
2019-06-27T14:58:25.165Z,10.45
2019-06-27T15:00:52.714Z,10.88
2019-06-27T15:03:20.394Z,10.08
2019-06-27T15:05:48.002Z,10.20
2019-06-27T15:08:15.687Z,10.60
2019-06-27T15:10:43.247Z,9.98
2019-06-27T15:13:10.844Z,10.30
2019-06-27T15:15:38.394Z,10.53
2019-06-27T15:18:05.960Z,10.38
2019-06-27T15:20:33.689Z,10.55
2019-06-27T15:23:01.351Z,10.98
2019-06-27T15:25:28.940Z,10.28
2019-06-27T15:27:56.696Z,10.28
2019-06-27T15:30:24.173Z,10.08
2019-06-27T15:32:51.797Z,9.53
2019-06-27T15:35:19.271Z,9.33
2019-06-27T15:37:46.837Z,10.40
2019-06-27T15:40:14.687Z,9.78
2019-06-27T15:42:42.682Z,10.10
2019-06-27T15:45:10.673Z,9.35
2019-06-27T15:47:38.342Z,10.30
2019-06-27T15:50:06.301Z,10.20
2019-06-27T15:52:34.049Z,10.55
2019-06-27T15:55:01.591Z,10.82
2019-06-27T15:57:29.211Z,10.70
2019-06-27T15:59:56.819Z,10.68
2019-06-27T16:02:24.364Z,10.70
2019-06-27T16:04:51.908Z,9.53
2019-06-27T16:07:19.656Z,9.35
2019-06-27T16:09:47.271Z,9.83
2019-06-27T16:12:14.896Z,13.08
2019-06-27T16:14:42.455Z,12.53
2019-06-27T16:17:10.081Z,9.85
2019-06-27T16:19:37.682Z,10.68
2019-06-27T16:22:05.331Z,9.85
2019-06-27T16:24:32.882Z,9.75
2019-06-27T16:27:00.567Z,9.98
2019-06-27T16:29:28.358Z,9.83
2019-06-27T16:31:55.952Z,10.35
2019-06-27T16:34:28.717Z,9.30
2019-06-27T16:36:54.582Z,9.60
2019-06-27T16:39:22.225Z,9.23
2019-06-27T16:41:49.815Z,9.75
2019-06-27T16:44:19.028Z,9.23
2019-06-27T16:46:46.592Z,10.08
2019-06-27T16:49:14.234Z,10.35
2019-06-27T16:51:41.845Z,9.90
2019-06-27T16:54:09.459Z,9.23
2019-06-27T16:56:37.180Z,9.75
2019-06-27T16:59:04.950Z,8.95
2019-06-27T17:01:32.590Z,9.38
2019-06-27T17:04:00.256Z,9.70
2019-06-27T17:06:40.904Z,9.83
2019-06-27T17:08:57.400Z,9.48
2019-06-27T17:11:24.988Z,10.03
2019-06-27T17:13:52.614Z,9.65
2019-06-27T17:16:22.382Z,10.00
2019-06-27T17:18:50.064Z,10.05
2019-06-27T17:21:17.779Z,10.28
2019-06-27T17:23:45.491Z,10.25
2019-06-27T17:26:13.105Z,10.20
2019-06-27T17:28:40.872Z,10.48
2019-06-27T17:31:08.473Z,9.90
2019-06-27T17:33:36.051Z,9.53
2019-06-27T17:36:03.685Z,9.78
2019-06-27T17:38:31.376Z,10.03
2019-06-27T17:40:58.928Z,10.10
2019-06-27T17:43:26.516Z,10.80
2019-06-27T17:45:54.109Z,10.68
2019-06-27T17:48:21.697Z,10.13
2019-06-27T17:50:49.382Z,10.60
2019-06-27T17:53:16.925Z,10.28
2019-06-27T17:55:44.504Z,10.23
2019-06-27T17:58:12.074Z,10.08
2019-06-27T18:00:39.914Z,10.40
2019-06-27T18:03:07.482Z,11.20
2019-06-27T18:05:35.138Z,10.20
2019-06-27T18:08:02.735Z,9.78
2019-06-27T18:10:30.356Z,10.35
2019-06-27T18:12:58.308Z,10.70
2019-06-27T18:15:25.901Z,9.90
2019-06-27T18:17:53.536Z,10.75
2019-06-27T18:20:21.222Z,9.70
2019-06-27T18:22:49.065Z,11.08
2019-06-27T18:25:16.723Z,10.98
2019-06-27T18:27:44.341Z,11.03
2019-06-27T18:30:12.466Z,10.25
2019-06-27T18:32:40.794Z,10.18
2019-06-27T18:35:09.027Z,10.15
2019-06-27T18:37:36.676Z,10.32
2019-06-27T18:40:04.791Z,11.10
2019-06-27T18:42:32.924Z,10.38
2019-06-27T18:45:00.983Z,11.35
2019-06-27T18:47:29.112Z,11.85
2019-06-27T18:49:57.333Z,11.20
2019-06-27T18:52:25.728Z,11.97
2019-06-27T18:54:53.596Z,10.75
2019-06-27T18:57:22.317Z,10.00
2019-06-27T18:59:53.428Z,10.15
2019-06-27T19:02:19.990Z,10.82
2019-06-27T19:04:47.818Z,10.43
2019-06-27T19:07:15.832Z,10.88
2019-06-27T19:09:43.653Z,10.70
2019-06-27T19:12:11.801Z,11.12
2019-06-27T19:14:40.302Z,11.48
2019-06-27T19:17:08.352Z,10.93
2019-06-27T19:19:38.006Z,11.20
2019-06-27T19:22:25.657Z,10.35
2019-06-27T19:24:58.290Z,12.25
2019-06-27T19:27:26.858Z,11.73
2019-06-27T19:29:54.859Z,10.95
2019-06-27T19:32:22.956Z,11.37
2019-06-27T19:34:51.054Z,11.78
2019-06-27T19:37:19.019Z,11.83
2019-06-27T19:39:47.447Z,11.25
2019-06-27T19:42:15.766Z,10.93
2019-06-27T19:44:43.539Z,11.23
2019-06-27T19:47:11.204Z,11.70
2019-06-27T19:49:38.891Z,11.03
2019-06-27T19:52:06.546Z,10.72
2019-06-27T19:54:34.533Z,10.90
2019-06-27T19:57:02.222Z,11.50
2019-06-27T19:59:29.840Z,12.58
2019-06-27T20:01:57.535Z,12.58
2019-06-27T20:04:25.762Z,11.50
2019-06-27T20:06:53.780Z,11.12
2019-06-27T20:09:21.978Z,11.53
2019-06-27T20:11:51.333Z,11.30
2019-06-27T20:14:18.916Z,11.85
2019-06-27T20:16:46.776Z,12.15
2019-06-27T20:19:14.495Z,12.50
2019-06-27T20:21:42.096Z,11.25
2019-06-27T20:24:09.697Z,11.15
2019-06-27T20:26:37.414Z,12.20
2019-06-27T20:29:05.057Z,11.35
2019-06-27T20:31:32.558Z,11.60
2019-06-27T20:34:00.167Z,12.05
2019-06-27T20:36:27.833Z,12.03
2019-06-27T20:38:55.493Z,11.53
2019-06-27T20:41:23.142Z,12.78
2019-06-27T20:43:50.688Z,11.87
2019-06-27T20:46:18.284Z,12.30
2019-06-27T20:48:45.834Z,12.50
2019-06-27T20:51:13.386Z,11.77
2019-06-27T20:53:40.995Z,12.27
2019-06-27T20:56:09.534Z,11.60
2019-06-27T20:58:37.099Z,12.13
2019-06-27T21:01:04.768Z,11.67
2019-06-27T21:03:32.329Z,12.25
2019-06-27T21:06:00.771Z,11.47
2019-06-27T21:08:28.390Z,12.43
2019-06-27T21:10:55.954Z,12.23
2019-06-27T21:13:23.523Z,12.00
2019-06-27T21:15:51.140Z,12.07
2019-06-27T21:18:18.692Z,12.30
2019-06-27T21:20:46.311Z,11.90
2019-06-27T21:23:14.890Z,12.73
2019-06-27T21:25:42.495Z,13.25
2019-06-27T21:28:10.385Z,12.97
2019-06-27T21:30:38.022Z,13.70
2019-06-27T21:33:05.609Z,13.97
2019-06-27T21:35:34.001Z,13.07
2019-06-27T21:38:02.649Z,14.07
2019-06-27T21:40:30.347Z,13.60
2019-06-27T21:42:57.961Z,13.20
2019-06-27T21:45:25.655Z,12.47
2019-06-27T21:47:53.461Z,13.00
2019-06-27T21:50:21.139Z,11.87
2019-06-27T21:52:48.633Z,11.43
2019-06-27T21:55:16.317Z,11.90
2019-06-27T21:57:43.901Z,12.40
2019-06-27T22:00:11.696Z,12.53
2019-06-27T22:02:41.253Z,12.03
2019-06-27T22:05:09.013Z,11.80
2019-06-27T22:07:36.652Z,13.30
2019-06-27T22:10:05.729Z,12.63
2019-06-27T22:12:34.629Z,13.77
2019-06-27T22:15:02.304Z,13.53
2019-06-27T22:17:31.094Z,13.20
2019-06-27T22:20:14.019Z,13.47
2019-06-27T22:22:28.341Z,13.40
2019-06-27T22:24:55.998Z,14.43
2019-06-27T22:27:23.658Z,13.53
2019-06-27T22:29:51.269Z,12.50
2019-06-27T22:32:18.866Z,12.67
2019-06-27T22:34:46.895Z,12.43
2019-06-27T22:37:23.568Z,13.60
2019-06-27T22:40:11.212Z,13.27
2019-06-27T22:42:57.824Z,12.90
2019-06-27T22:45:43.629Z,13.33
2019-06-27T22:48:14.258Z,12.50
2019-06-27T22:51:05.860Z,12.07
2019-06-27T22:53:38.851Z,11.30
2019-06-27T22:56:06.984Z,12.53
2019-06-27T22:58:34.488Z,12.27
2019-06-27T23:01:03.944Z,12.73
2019-06-27T23:03:31.470Z,12.40
2019-06-27T23:05:59.115Z,11.63
2019-06-27T23:08:26.637Z,11.67
2019-06-27T23:10:54.697Z,11.93
2019-06-27T23:13:22.211Z,10.97
2019-06-27T23:15:49.959Z,11.23
2019-06-27T23:18:17.482Z,11.30
2019-06-27T23:20:45.067Z,11.23
2019-06-27T23:23:12.573Z,10.70
2019-06-27T23:25:40.184Z,10.67
2019-06-27T23:28:07.720Z,9.93
2019-06-27T23:30:35.378Z,10.30
2019-06-27T23:33:03.097Z,9.90
2019-06-27T23:35:30.752Z,9.40
2019-06-27T23:37:58.338Z,9.83
2019-06-27T23:40:25.953Z,9.53
2019-06-27T23:42:53.590Z,9.07
2019-06-27T23:45:21.619Z,8.97
2019-06-27T23:47:49.544Z,9.37
2019-06-27T23:50:17.477Z,10.00
2019-06-27T23:52:46.366Z,9.60
2019-06-27T23:55:14.438Z,9.00
2019-06-27T23:57:42.368Z,9.57
